sensor_id;sensor_type;location;lat;lon;timestamp;P1;durP1;ratioP1;P2;durP2;ratioP2
61458;SDS011;47324;48.760;9.156;2022-07-24T14:05:38;7.22;;;6.40;;
61458;SDS011;47324;48.760;9.156;2022-07-24T14:08:04;8.32;;;7.28;;
61458;SDS011;47324;48.760;9.156;2022-07-24T14:10:30;6.97;;;6.28;;
61458;SDS011;47324;48.760;9.156;2022-07-24T14:12:56;6.93;;;6.22;;
61458;SDS011;47324;48.760;9.156;2022-07-24T14:15:22;9.40;;;7.05;;
61458;SDS011;47324;48.760;9.156;2022-07-24T14:17:48;8.48;;;7.13;;
61458;SDS011;47324;48.760;9.156;2022-07-24T14:20:14;7.93;;;7.13;;
61458;SDS011;47324;48.760;9.156;2022-07-24T14:22:40;8.27;;;6.88;;
61458;SDS011;47324;48.760;9.156;2022-07-24T14:25:07;7.47;;;6.75;;
61458;SDS011;47324;48.760;9.156;2022-07-24T14:27:33;7.60;;;6.20;;
61458;SDS011;47324;48.760;9.156;2022-07-24T14:30:00;8.23;;;6.88;;
61458;SDS011;47324;48.760;9.156;2022-07-24T14:32:26;10.05;;;7.75;;
61458;SDS011;47324;48.760;9.156;2022-07-24T14:34:52;8.00;;;6.30;;
61458;SDS011;47324;48.760;9.156;2022-07-24T14:37:18;8.00;;;7.13;;
61458;SDS011;47324;48.760;9.156;2022-07-24T14:39:44;8.40;;;7.18;;
61458;SDS011;47324;48.760;9.156;2022-07-24T14:42:10;7.35;;;6.53;;
61458;SDS011;47324;48.760;9.156;2022-07-24T14:44:36;8.38;;;6.78;;
61458;SDS011;47324;48.760;9.156;2022-07-24T14:47:02;8.82;;;6.95;;
61458;SDS011;47324;48.760;9.156;2022-07-24T14:49:30;8.13;;;7.00;;
61458;SDS011;47324;48.760;9.156;2022-07-24T14:51:57;7.18;;;6.15;;
61458;SDS011;47324;48.760;9.156;2022-07-24T14:54:23;6.82;;;6.13;;
61458;SDS011;47324;48.760;9.156;2022-07-24T14:56:49;8.32;;;6.78;;
61458;SDS011;47324;48.760;9.156;2022-07-24T14:59:15;11.25;;;8.60;;
61458;SDS011;47324;48.760;9.156;2022-07-24T15:01:41;7.93;;;6.63;;
61458;SDS011;47324;48.760;9.156;2022-07-24T15:04:07;7.05;;;6.13;;
61458;SDS011;47324;48.760;9.156;2022-07-24T15:06:33;7.13;;;6.43;;
61458;SDS011;47324;48.760;9.156;2022-07-24T15:09:00;8.55;;;6.13;;
61458;SDS011;47324;48.760;9.156;2022-07-24T15:11:28;7.38;;;6.30;;
61458;SDS011;47324;48.760;9.156;2022-07-24T15:13:54;6.22;;;5.60;;
61458;SDS011;47324;48.760;9.156;2022-07-24T15:16:20;6.80;;;5.63;;
61458;SDS011;47324;48.760;9.156;2022-07-24T15:18:46;8.05;;;5.55;;
61458;SDS011;47324;48.760;9.156;2022-07-24T15:21:12;6.15;;;5.55;;
61458;SDS011;47324;48.760;9.156;2022-07-24T15:23:38;7.15;;;5.20;;
61458;SDS011;47324;48.760;9.156;2022-07-24T15:26:04;6.25;;;5.38;;
61458;SDS011;47324;48.760;9.156;2022-07-24T15:28:31;5.15;;;4.45;;
61458;SDS011;47324;48.760;9.156;2022-07-24T15:30:57;5.95;;;4.35;;
61458;SDS011;47324;48.760;9.156;2022-07-24T15:33:23;5.78;;;4.80;;
61458;SDS011;47324;48.760;9.156;2022-07-24T15:35:49;5.43;;;4.50;;
61458;SDS011;47324;48.760;9.156;2022-07-24T15:38:15;5.82;;;4.60;;
61458;SDS011;47324;48.760;9.156;2022-07-24T15:40:42;6.65;;;4.32;;
61458;SDS011;47324;48.760;9.156;2022-07-24T15:43:09;4.97;;;4.32;;
61458;SDS011;47324;48.760;9.156;2022-07-24T15:45:36;5.75;;;4.72;;
61458;SDS011;47324;48.760;9.156;2022-07-24T15:48:02;4.35;;;3.85;;
61458;SDS011;47324;48.760;9.156;2022-07-24T15:50:29;4.70;;;3.85;;
61458;SDS011;47324;48.760;9.156;2022-07-24T15:52:55;4.85;;;4.15;;
61458;SDS011;47324;48.760;9.156;2022-07-24T15:55:21;4.40;;;3.78;;
61458;SDS011;47324;48.760;9.156;2022-07-24T15:57:47;5.30;;;3.22;;
61458;SDS011;47324;48.760;9.156;2022-07-24T16:00:13;4.68;;;4.00;;
61458;SDS011;47324;48.760;9.156;2022-07-24T16:02:39;5.20;;;3.67;;
61458;SDS011;47324;48.760;9.156;2022-07-24T16:05:05;4.45;;;3.53;;
61458;SDS011;47324;48.760;9.156;2022-07-24T16:07:32;5.65;;;3.65;;
61458;SDS011;47324;48.760;9.156;2022-07-24T16:09:58;4.35;;;3.70;;
61458;SDS011;47324;48.760;9.156;2022-07-24T16:12:24;5.30;;;3.40;;
61458;SDS011;47324;48.760;9.156;2022-07-24T16:14:51;5.55;;;3.90;;
61458;SDS011;47324;48.760;9.156;2022-07-24T16:17:17;3.95;;;2.95;;
61458;SDS011;47324;48.760;9.156;2022-07-24T16:19:47;5.13;;;3.78;;
61458;SDS011;47324;48.760;9.156;2022-07-24T16:22:14;3.83;;;3.40;;
61458;SDS011;47324;48.760;9.156;2022-07-24T16:24:40;3.72;;;2.60;;
61458;SDS011;47324;48.760;9.156;2022-07-24T16:27:06;4.10;;;3.03;;
61458;SDS011;47324;48.760;9.156;2022-07-24T16:29:32;4.25;;;3.28;;
61458;SDS011;47324;48.760;9.156;2022-07-24T16:31:58;4.80;;;3.92;;
61458;SDS011;47324;48.760;9.156;2022-07-24T16:34:24;4.68;;;3.10;;
61458;SDS011;47324;48.760;9.156;2022-07-24T16:36:50;4.65;;;3.30;;
61458;SDS011;47324;48.760;9.156;2022-07-24T16:39:16;7.13;;;3.92;;
61458;SDS011;47324;48.760;9.156;2022-07-24T16:41:42;4.05;;;3.60;;
61458;SDS011;47324;48.760;9.156;2022-07-24T16:44:10;4.63;;;3.42;;
61458;SDS011;47324;48.760;9.156;2022-07-24T16:46:36;5.05;;;3.40;;
61458;SDS011;47324;48.760;9.156;2022-07-24T16:49:02;3.97;;;3.38;;
61458;SDS011;47324;48.760;9.156;2022-07-24T16:51:28;3.70;;;3.28;;
61458;SDS011;47324;48.760;9.156;2022-07-24T16:53:54;5.85;;;4.00;;
61458;SDS011;47324;48.760;9.156;2022-07-24T16:56:20;3.80;;;3.15;;
61458;SDS011;47324;48.760;9.156;2022-07-24T16:58:46;3.80;;;3.40;;
61458;SDS011;47324;48.760;9.156;2022-07-24T17:01:12;3.83;;;3.42;;
61458;SDS011;47324;48.760;9.156;2022-07-24T17:03:39;5.05;;;4.18;;
61458;SDS011;47324;48.760;9.156;2022-07-24T17:06:06;5.40;;;4.53;;
61458;SDS011;47324;48.760;9.156;2022-07-24T17:08:32;6.00;;;3.90;;
61458;SDS011;47324;48.760;9.156;2022-07-24T17:10:58;8.98;;;5.55;;
61458;SDS011;47324;48.760;9.156;2022-07-24T17:13:24;5.70;;;5.10;;
61458;SDS011;47324;48.760;9.156;2022-07-24T17:15:50;6.75;;;5.40;;
61458;SDS011;47324;48.760;9.156;2022-07-24T17:18:16;6.72;;;5.25;;
61458;SDS011;47324;48.760;9.156;2022-07-24T17:20:42;8.30;;;5.60;;
61458;SDS011;47324;48.760;9.156;2022-07-24T17:23:11;6.65;;;5.95;;
61458;SDS011;47324;48.760;9.156;2022-07-24T17:25:38;8.27;;;6.10;;
61458;SDS011;47324;48.760;9.156;2022-07-24T17:28:06;7.65;;;6.22;;
61458;SDS011;47324;48.760;9.156;2022-07-24T17:30:34;9.07;;;6.82;;
61458;SDS011;47324;48.760;9.156;2022-07-24T17:33:01;7.00;;;6.25;;
61458;SDS011;47324;48.760;9.156;2022-07-24T17:35:27;8.23;;;7.30;;
61458;SDS011;47324;48.760;9.156;2022-07-24T17:37:53;7.93;;;6.30;;
61458;SDS011;47324;48.760;9.156;2022-07-24T17:40:19;9.15;;;7.10;;
61458;SDS011;47324;48.760;9.156;2022-07-24T17:42:47;9.82;;;6.65;;
61458;SDS011;47324;48.760;9.156;2022-07-24T17:45:13;7.47;;;6.55;;
61458;SDS011;47324;48.760;9.156;2022-07-24T17:47:40;10.65;;;7.15;;
61458;SDS011;47324;48.760;9.156;2022-07-24T17:50:07;7.78;;;6.97;;
61458;SDS011;47324;48.760;9.156;2022-07-24T17:52:35;9.20;;;6.88;;
61458;SDS011;47324;48.760;9.156;2022-07-24T17:55:01;9.27;;;7.25;;
61458;SDS011;47324;48.760;9.156;2022-07-24T17:57:27;7.63;;;6.82;;
61458;SDS011;47324;48.760;9.156;2022-07-24T17:59:53;7.60;;;6.75;;
61458;SDS011;47324;48.760;9.156;2022-07-24T18:02:18;9.18;;;7.55;;
61458;SDS011;47324;48.760;9.156;2022-07-24T18:04:44;8.93;;;8.02;;
61458;SDS011;47324;48.760;9.156;2022-07-24T18:07:10;10.45;;;7.82;;
61458;SDS011;47324;48.760;9.156;2022-07-24T18:09:36;9.48;;;8.35;;
61458;SDS011;47324;48.760;9.156;2022-07-24T18:12:03;8.18;;;7.38;;
61458;SDS011;47324;48.760;9.156;2022-07-24T18:14:32;7.47;;;6.68;;
61458;SDS011;47324;48.760;9.156;2022-07-24T18:16:59;10.82;;;8.50;;
61458;SDS011;47324;48.760;9.156;2022-07-24T18:19:25;8.55;;;7.65;;
61458;SDS011;47324;48.760;9.156;2022-07-24T18:21:51;9.80;;;8.73;;
61458;SDS011;47324;48.760;9.156;2022-07-24T18:24:17;8.60;;;7.68;;
61458;SDS011;47324;48.760;9.156;2022-07-24T18:26:42;8.73;;;7.82;;
61458;SDS011;47324;48.760;9.156;2022-07-24T18:29:09;9.45;;;8.43;;
61458;SDS011;47324;48.760;9.156;2022-07-24T18:31:35;9.35;;;8.35;;
61458;SDS011;47324;48.760;9.156;2022-07-24T18:34:01;8.70;;;7.80;;
61458;SDS011;47324;48.760;9.156;2022-07-24T18:36:27;8.35;;;7.40;;
61458;SDS011;47324;48.760;9.156;2022-07-24T18:38:53;8.38;;;7.20;;
61458;SDS011;47324;48.760;9.156;2022-07-24T18:41:19;7.88;;;7.05;;
61458;SDS011;47324;48.760;9.156;2022-07-24T18:43:45;7.72;;;6.93;;
61458;SDS011;47324;48.760;9.156;2022-07-24T18:46:11;11.65;;;7.85;;
61458;SDS011;47324;48.760;9.156;2022-07-24T18:48:37;7.82;;;7.03;;
61458;SDS011;47324;48.760;9.156;2022-07-24T18:51:05;8.13;;;7.32;;
61458;SDS011;47324;48.760;9.156;2022-07-24T18:53:31;7.72;;;7.00;;
61458;SDS011;47324;48.760;9.156;2022-07-24T18:55:57;8.35;;;7.50;;
61458;SDS011;47324;48.760;9.156;2022-07-24T18:58:24;9.75;;;8.75;;
61458;SDS011;47324;48.760;9.156;2022-07-24T19:00:50;11.10;;;9.48;;
61458;SDS011;47324;48.760;9.156;2022-07-24T19:03:17;9.65;;;8.73;;
61458;SDS011;47324;48.760;9.156;2022-07-24T19:05:43;9.52;;;8.52;;
61458;SDS011;47324;48.760;9.156;2022-07-24T19:08:09;10.93;;;9.07;;
61458;SDS011;47324;48.760;9.156;2022-07-24T19:10:35;8.77;;;7.88;;
61458;SDS011;47324;48.760;9.156;2022-07-24T19:13:01;8.25;;;7.25;;
61458;SDS011;47324;48.760;9.156;2022-07-24T19:15:27;8.90;;;7.97;;
61458;SDS011;47324;48.760;9.156;2022-07-24T19:17:53;12.15;;;8.77;;
61458;SDS011;47324;48.760;9.156;2022-07-24T19:20:19;8.48;;;7.57;;
61458;SDS011;47324;48.760;9.156;2022-07-24T19:22:45;10.63;;;8.48;;
61458;SDS011;47324;48.760;9.156;2022-07-24T19:25:11;11.07;;;9.10;;
61458;SDS011;47324;48.760;9.156;2022-07-24T19:27:38;8.68;;;7.78;;
61458;SDS011;47324;48.760;9.156;2022-07-24T19:30:05;10.40;;;8.60;;
